Time;durP1;ratioP1;P1;durP2;ratioP2;P2;SDS_P1;SDS_P2;PMS_P1;PMS_P2;Temp;Humidity;BMP_temperature;BMP_pressure;BME280_temperature;BME280_humidity;BME280_pressure;Samples;Min_cycle;Max_cycle;Signal;HPM_P1;HPM_P2
2021/03/15 00:03:31;;;;;;;9.75;3.17;;;4.80;99.90;;;;;;6708392;88;20182;-76
2021/03/15 00:13:31;;;;;;;8.48;3.30;;;4.80;99.90;;;;;;6711825;88;20321;-77
2021/03/15 00:23:32;;;;;;;10.68;3.30;;;4.80;99.90;;;;;;6729833;88;20789;-77
2021/03/15 00:33:32;;;;;;;9.43;3.50;;;4.90;99.90;;;;;;6723723;88;20322;-76
2021/03/15 00:43:33;;;;;;;10.55;4.07;;;5.10;99.90;;;;;;6726787;88;20198;-77
2021/03/15 00:53:34;;;;;;;11.18;3.80;;;5.30;99.90;;;;;;6733523;88;20182;-76
2021/03/15 01:03:34;;;;;;;8.70;3.65;;;5.40;99.90;;;;;;6734564;88;20212;-78
2021/03/15 01:13:36;;;;;;;9.25;3.90;;;5.30;99.90;;;;;;6726911;88;20996;-76
2021/03/15 01:23:36;;;;;;;11.60;3.55;;;5.10;99.90;;;;;;6721699;88;20690;-77
2021/03/15 01:33:37;;;;;;;12.27;4.07;;;5.00;99.90;;;;;;6723417;88;20194;-76
2021/03/15 01:43:37;;;;;;;14.57;4.22;;;4.90;99.90;;;;;;6709310;88;20204;-75
2021/03/15 01:53:38;;;;;;;10.70;4.40;;;4.90;99.90;;;;;;6709306;88;20224;-75
2021/03/15 02:03:39;;;;;;;11.38;4.43;;;4.80;99.90;;;;;;6704804;88;20613;-76
2021/03/15 02:13:52;;;;;;;11.43;4.35;;;4.80;99.90;;;;;;6714119;88;20196;-75
2021/03/15 02:24:15;;;;;;;9.73;4.00;;;4.90;99.90;;;;;;6711743;88;20206;-75
2021/03/15 02:34:34;;;;;;;12.13;4.07;;;4.90;99.90;;;;;;6707819;88;20194;-75
2021/03/15 02:44:36;;;;;;;10.90;3.80;;;4.90;99.90;;;;;;6709086;88;20216;-75
2021/03/15 02:54:39;;;;;;;9.88;4.10;;;4.80;99.90;;;;;;6712278;88;20193;-75
2021/03/15 03:04:43;;;;;;;9.88;3.70;;;4.80;99.90;;;;;;6712423;88;20243;-75
2021/03/15 03:14:46;;;;;;;10.55;3.20;;;4.90;99.90;;;;;;6710562;88;20328;-76
2021/03/15 03:24:47;;;;;;;7.72;2.28;;;4.80;99.90;;;;;;6724192;88;20206;-75
2021/03/15 03:34:47;;;;;;;6.78;1.75;;;4.90;99.90;;;;;;6723646;88;20692;-75
2021/03/15 03:44:49;;;;;;;4.80;1.48;;;4.80;99.90;;;;;;6725395;88;20510;-76
2021/03/15 03:54:50;;;;;;;3.08;0.98;;;4.80;99.90;;;;;;6721823;88;20895;-76
2021/03/15 04:05:02;;;;;;;1.87;0.80;;;4.80;99.90;;;;;;6727358;88;20217;-75
2021/03/15 04:15:04;;;;;;;1.17;0.45;;;4.90;99.90;;;;;;6729975;88;20190;-75
2021/03/15 04:25:06;;;;;;;1.27;0.40;;;4.80;99.90;;;;;;6728869;88;20233;-75
2021/03/15 04:35:07;;;;;;;1.00;0.30;;;4.70;99.90;;;;;;6724813;88;20272;-76
2021/03/15 04:45:08;;;;;;;0.90;0.40;;;4.70;99.90;;;;;;6711858;88;20261;-75
2021/03/15 04:55:09;;;;;;;2.20;0.85;;;4.80;99.90;;;;;;6712860;88;20740;-76
2021/03/15 05:05:14;;;;;;;2.17;0.88;;;4.90;99.90;;;;;;6731049;88;20233;-75
2021/03/15 05:15:15;;;;;;;4.72;1.90;;;4.90;99.90;;;;;;6739448;88;20335;-76
2021/03/15 05:25:17;;;;;;;6.50;2.25;;;4.90;99.90;;;;;;6730881;88;20210;-76
2021/03/15 05:35:19;;;;;;;8.27;3.00;;;4.90;99.90;;;;;;6729310;88;20205;-75
2021/03/15 05:45:40;;;;;;;9.02;4.37;;;5.00;99.90;;;;;;6729469;88;20197;-76
2021/03/15 05:55:56;;;;;;;16.58;6.25;;;5.00;99.90;;;;;;6729459;88;20326;-75
2021/03/15 06:06:01;;;;;;;15.82;7.47;;;5.10;99.90;;;;;;6729346;88;20299;-75
2021/03/15 06:16:04;;;;;;;15.88;7.72;;;5.30;99.90;;;;;;6733744;88;20202;-76
2021/03/15 06:26:07;;;;;;;4.22;2.10;;;5.40;99.90;;;;;;6731929;88;20703;-75
2021/03/15 06:36:10;;;;;;;2.83;1.08;;;5.10;99.90;;;;;;6729038;88;20628;-75
2021/03/15 06:46:15;;;;;;;4.05;2.35;;;4.90;99.90;;;;;;6713850;88;20195;-75
2021/03/15 06:56:17;;;;;;;7.03;3.30;;;4.90;99.90;;;;;;6733457;88;20192;-75
2021/03/15 07:06:19;;;;;;;7.95;4.28;;;5.00;99.90;;;;;;6731028;88;20191;-75
2021/03/15 07:16:29;;;;;;;10.25;5.53;;;5.20;99.90;;;;;;6726731;88;20208;-76
2021/03/15 07:26:31;;;;;;;11.00;6.10;;;5.20;99.90;;;;;;6714380;88;20182;-75
2021/03/15 07:36:33;;;;;;;13.82;6.28;;;5.20;99.90;;;;;;6713955;88;20273;-76
2021/03/15 07:46:39;;;;;;;13.38;7.22;;;5.20;99.90;;;;;;6715965;88;20621;-76
2021/03/15 07:56:39;;;;;;;11.77;6.62;;;5.40;99.90;;;;;;6716381;88;20309;-77
2021/03/15 08:06:40;;;;;;;12.40;6.18;;;5.60;99.90;;;;;;6715292;88;20224;-76
2021/03/15 08:16:42;;;;;;;11.80;6.23;;;5.80;99.90;;;;;;6727913;88;20352;-76
2021/03/15 08:26:47;;;;;;;16.85;8.00;;;6.10;99.90;;;;;;6726364;88;20580;-76
2021/03/15 08:36:47;;;;;;;17.87;9.00;;;6.00;99.90;;;;;;6726603;88;20267;-76
2021/03/15 08:46:48;;;;;;;16.45;8.05;;;6.50;99.90;;;;;;6727375;88;20216;-76
2021/03/15 08:56:48;;;;;;;17.17;6.80;;;6.60;99.90;;;;;;6725079;88;20194;-76
2021/03/15 09:06:49;;;;;;;13.77;6.57;;;6.80;99.90;;;;;;6728954;88;20293;-76
2021/03/15 09:16:58;;;;;;;12.35;5.47;;;6.60;99.90;;;;;;6723381;88;20815;-76
2021/03/15 09:26:58;;;;;;;11.57;4.30;;;6.90;99.90;;;;;;6728482;88;20191;-76
2021/03/15 09:37:01;;;;;;;8.43;3.40;;;6.80;99.90;;;;;;6714115;88;20214;-76
2021/03/15 09:47:01;;;;;;;9.50;3.75;;;6.80;99.90;;;;;;6728818;88;20559;-76
2021/03/15 09:57:02;;;;;;;7.32;3.40;;;6.80;99.90;;;;;;6726464;88;20213;-76
2021/03/15 10:07:06;;;;;;;9.60;3.97;;;6.60;99.90;;;;;;6730730;88;20348;-76
2021/03/15 10:17:06;;;;;;;11.43;4.12;;;6.50;99.90;;;;;;6732431;88;20264;-76
2021/03/15 10:27:14;;;;;;;8.43;3.50;;;6.70;99.90;;;;;;6718308;88;20383;-77
2021/03/15 10:37:15;;;;;;;10.07;3.33;;;7.00;99.90;;;;;;6716456;88;20203;-78
2021/03/15 10:47:29;;;;;;;9.23;3.37;;;7.40;99.90;;;;;;6725568;88;20600;-77
2021/03/15 10:57:30;;;;;;;7.62;2.95;;;8.10;99.90;;;;;;6717843;88;20305;-77
2021/03/15 11:07:36;;;;;;;6.95;3.00;;;9.30;99.90;;;;;;6717043;88;20317;-77
2021/03/15 11:17:38;;;;;;;7.78;2.05;;;9.20;99.90;;;;;;6723311;88;21132;-78
2021/03/15 11:27:38;;;;;;;5.78;2.15;;;8.70;99.90;;;;;;6717833;88;20181;-77
2021/03/15 11:37:47;;;;;;;6.50;1.98;;;8.80;99.90;;;;;;6731203;88;20195;-79
2021/03/15 11:47:48;;;;;;;7.68;1.92;;;8.50;99.90;;;;;;6718174;88;20177;-77
2021/03/15 11:57:49;;;;;;;6.35;2.17;;;7.90;99.90;;;;;;6722229;88;20652;-77
2021/03/15 12:07:50;;;;;;;3.55;1.70;;;6.70;99.90;;;;;;6729262;88;20227;-76
2021/03/15 12:17:50;;;;;;;7.22;1.90;;;6.20;99.90;;;;;;6726587;88;20189;-76
2021/03/15 12:27:54;;;;;;;7.53;2.17;;;6.60;99.90;;;;;;6725030;88;20213;-77
2021/03/15 12:37:55;;;;;;;6.00;1.90;;;8.50;99.90;;;;;;6723385;88;20178;-77
2021/03/15 12:47:55;;;;;;;5.67;2.07;;;10.00;99.90;;;;;;6723968;88;21003;-76
2021/03/15 12:57:56;;;;;;;7.25;1.58;;;9.90;99.90;;;;;;6723052;88;20503;-76
2021/03/15 13:07:57;;;;;;;3.75;1.05;;;9.40;99.90;;;;;;6720424;88;20782;-77
2021/03/15 13:17:58;;;;;;;5.07;1.00;;;10.40;99.90;;;;;;6719355;88;20709;-77
2021/03/15 13:28:00;;;;;;;6.03;1.50;;;9.80;99.90;;;;;;6718983;88;20178;-77
2021/03/15 13:38:00;;;;;;;6.93;2.10;;;11.00;99.90;;;;;;6710379;88;20231;-77
2021/03/15 13:48:01;;;;;;;5.00;1.20;;;10.80;99.90;;;;;;6720192;88;20662;-77
2021/03/15 13:58:02;;;;;;;3.12;0.90;;;11.00;99.90;;;;;;6723535;88;20226;-76
2021/03/15 14:08:02;;;;;;;7.60;1.20;;;11.10;99.90;;;;;;6723615;88;20181;-77
2021/03/15 14:18:03;;;;;;;6.43;1.37;;;10.80;99.90;;;;;;6722268;88;20537;-77
2021/03/15 14:28:09;;;;;;;4.68;1.00;;;9.80;99.90;;;;;;6721873;88;20203;-76
2021/03/15 14:38:10;;;;;;;4.33;0.90;;;9.80;99.90;;;;;;6719700;88;20215;-77
2021/03/15 14:48:10;;;;;;;4.20;0.80;;;10.20;99.90;;;;;;6719891;88;21081;-77
2021/03/15 14:58:11;;;;;;;5.20;1.00;;;10.50;99.90;;;;;;6722263;88;20231;-77
2021/03/15 15:08:11;;;;;;;6.22;0.95;;;10.60;99.90;;;;;;6717808;88;20317;-77
2021/03/15 15:18:12;;;;;;;4.10;0.70;;;10.60;99.90;;;;;;6723148;88;20231;-75
2021/03/15 15:28:13;;;;;;;3.28;0.57;;;9.50;99.90;;;;;;6717507;88;20719;-77
2021/03/15 15:38:14;;;;;;;7.70;0.90;;;9.40;99.90;;;;;;6722115;88;22143;-76
2021/03/15 15:48:14;;;;;;;5.07;0.90;;;9.50;99.90;;;;;;6721640;88;20186;-76
2021/03/15 15:58:15;;;;;;;4.32;1.20;;;9.30;99.90;;;;;;6719878;88;20217;-76
2021/03/15 16:08:16;;;;;;;6.55;1.65;;;8.70;99.90;;;;;;6726609;88;20364;-75
2021/03/15 16:18:16;;;;;;;4.80;2.00;;;7.30;99.90;;;;;;6718644;88;20177;-76
2021/03/15 16:28:17;;;;;;;7.87;1.90;;;6.70;99.90;;;;;;6718090;88;20212;-75
2021/03/15 16:38:17;;;;;;;6.07;1.42;;;6.70;99.90;;;;;;6708407;88;21200;-74
2021/03/15 16:48:18;;;;;;;8.65;2.22;;;6.80;99.90;;;;;;6710583;88;20174;-75
2021/03/15 16:58:19;;;;;;;7.47;2.92;;;6.40;99.90;;;;;;6714565;88;20585;-77
2021/03/15 17:08:19;;;;;;;5.05;1.60;;;6.30;99.90;;;;;;6710143;88;20967;-75
2021/03/15 17:18:20;;;;;;;8.57;2.30;;;6.20;99.90;;;;;;6711113;88;20313;-76
2021/03/15 17:28:21;;;;;;;8.77;3.10;;;5.90;99.90;;;;;;6710477;88;20504;-75
2021/03/15 17:38:22;;;;;;;9.98;3.15;;;6.00;99.90;;;;;;6713358;88;20237;-75
2021/03/15 17:48:22;;;;;;;5.97;1.83;;;6.00;99.90;;;;;;6712383;88;20530;-77
2021/03/15 17:58:23;;;;;;;4.95;1.90;;;6.00;99.90;;;;;;6721637;88;20741;-75
2021/03/15 18:08:23;;;;;;;6.68;2.15;;;5.90;99.90;;;;;;6714999;88;20198;-76
2021/03/15 18:18:24;;;;;;;9.10;1.90;;;5.90;99.90;;;;;;6743657;88;20206;-81
2021/03/15 18:28:24;;;;;;;9.07;1.33;;;5.90;99.90;;;;;;6739728;88;20212;-80
2021/03/15 18:38:25;;;;;;;6.37;1.50;;;5.90;99.90;;;;;;6742796;88;20794;-79
2021/03/15 18:48:26;;;;;;;7.50;1.80;;;5.80;99.90;;;;;;6737844;88;20610;-76
2021/03/15 18:58:26;;;;;;;12.95;2.00;;;5.90;99.90;;;;;;6738417;88;20204;-78
2021/03/15 19:08:27;;;;;;;11.55;1.90;;;5.90;99.90;;;;;;6734146;88;20217;-75
2021/03/15 19:18:28;;;;;;;9.95;1.70;;;5.80;99.90;;;;;;6728698;88;21216;-75
2021/03/15 19:28:29;;;;;;;7.35;1.70;;;5.70;99.90;;;;;;6722122;88;20622;-75
2021/03/15 19:38:29;;;;;;;11.73;2.00;;;5.60;99.90;;;;;;6721148;88;20959;-75
2021/03/15 19:48:30;;;;;;;9.68;1.75;;;5.60;99.90;;;;;;6718421;88;20247;-75
2021/03/15 19:58:30;;;;;;;9.57;2.08;;;5.60;99.90;;;;;;6719848;88;20200;-75
2021/03/15 20:08:31;;;;;;;6.57;2.10;;;5.60;99.90;;;;;;6720473;88;20239;-75
2021/03/15 20:18:32;;;;;;;6.15;1.77;;;5.60;99.90;;;;;;6720045;88;20269;-74
2021/03/15 20:28:32;;;;;;;6.70;2.03;;;5.50;99.90;;;;;;6718559;88;20228;-74
2021/03/15 20:38:37;;;;;;;6.82;2.10;;;5.50;99.90;;;;;;6718297;88;20220;-73
2021/03/15 20:48:37;;;;;;;10.45;2.75;;;5.40;99.90;;;;;;6721813;88;20196;-74
2021/03/15 20:58:38;;;;;;;7.78;3.03;;;5.30;99.90;;;;;;6718778;88;20182;-74
2021/03/15 21:08:38;;;;;;;9.27;3.28;;;5.00;99.90;;;;;;6716663;88;20205;-74
2021/03/15 21:18:39;;;;;;;14.20;4.03;;;5.10;99.90;;;;;;6717832;88;20170;-75
2021/03/15 21:28:39;;;;;;;15.20;3.37;;;4.90;99.90;;;;;;6719145;88;20498;-74
2021/03/15 21:38:41;;;;;;;10.18;3.42;;;4.90;99.90;;;;;;6716696;88;20332;-74
2021/03/15 21:48:42;;;;;;;12.93;3.12;;;4.80;99.90;;;;;;6706874;88;20210;-75
2021/03/15 21:58:43;;;;;;;17.23;3.00;;;4.90;99.90;;;;;;6707406;88;20201;-75
2021/03/15 22:08:43;;;;;;;20.93;3.40;;;5.00;99.90;;;;;;6728470;88;20343;-74
2021/03/15 22:18:44;;;;;;;20.00;3.75;;;4.90;99.90;;;;;;6719652;88;21149;-75
2021/03/15 22:28:45;;;;;;;17.35;3.08;;;5.10;99.90;;;;;;6708192;88;20178;-74
2021/03/15 22:39:27;;;;;;;11.52;2.60;;;5.10;99.90;;;;;;6723850;77;20587;-77
2021/03/15 22:49:29;;;;;;;14.40;3.53;;;5.10;99.90;;;;;;6714387;88;20231;-77
2021/03/15 22:59:29;;;;;;;14.77;2.85;;;5.00;99.90;;;;;;6707034;88;20222;-77
2021/03/15 23:09:30;;;;;;;17.48;3.50;;;5.00;99.90;;;;;;6729344;88;20533;-77
2021/03/15 23:19:34;;;;;;;13.98;3.05;;;5.10;99.90;;;;;;6711789;88;20202;-76
2021/03/15 23:29:37;;;;;;;7.90;1.40;;;5.10;99.90;;;;;;6702936;88;20195;-77
2021/03/15 23:39:40;;;;;;;6.25;2.05;;;4.50;99.90;;;;;;6708041;88;20727;-76
2021/03/15 23:49:40;;;;;;;7.25;2.03;;;4.20;99.90;;;;;;6712708;88;20221;-77
2021/03/15 23:59:41;;;;;;;11.10;3.87;;;3.70;99.90;;;;;;6711892;88;20247;-77
